Time;durP1;ratioP1;P1;durP2;ratioP2;P2;SDS_P1;SDS_P2;PMS_P1;PMS_P2;Temp;Humidity;BMP_temperature;BMP_pressure;BME280_temperature;BME280_humidity;BME280_pressure;Samples;Min_cycle;Max_cycle;Signal;HPM_P1;HPM_P2
2022/07/13 00:00:27;;;;;;;4.75;3.40;;;;;;;32.85;24.20;100273.13;5009884;28;20052;-68
2022/07/13 00:02:54;;;;;;;6.18;4.15;;;;;;;32.63;23.76;100250.38;5001771;28;20128;-69
2022/07/13 00:05:21;;;;;;;6.38;4.50;;;;;;;32.67;24.68;100276.34;5007351;28;20499;-68
2022/07/13 00:07:48;;;;;;;5.57;3.40;;;;;;;32.41;24.80;100243.28;5007392;28;20132;-68
2022/07/13 00:10:15;;;;;;;7.47;3.67;;;;;;;32.64;24.38;100275.13;5006410;28;20651;-68
2022/07/13 00:12:42;;;;;;;5.95;3.78;;;;;;;32.52;24.77;100264.22;5006591;28;20064;-68
2022/07/13 00:15:10;;;;;;;5.72;4.03;;;;;;;32.57;24.81;100263.69;5005799;28;20081;-68
2022/07/13 00:17:37;;;;;;;5.75;3.90;;;;;;;32.46;24.60;100257.28;5001482;28;20070;-68
2022/07/13 00:20:04;;;;;;;4.65;3.70;;;;;;;32.47;24.72;100253.13;5000933;28;20125;-68
2022/07/13 00:22:31;;;;;;;10.15;3.58;;;;;;;32.54;25.19;100264.56;4999223;28;20049;-68
2022/07/13 00:24:58;;;;;;;7.03;3.30;;;;;;;32.60;24.74;100271.50;5005530;28;20144;-68
2022/07/13 00:27:25;;;;;;;11.55;4.40;;;;;;;32.62;24.80;100274.78;5002413;28;20140;-67
2022/07/13 00:29:51;;;;;;;9.05;3.78;;;;;;;32.59;24.94;100274.84;5013592;28;20053;-68
2022/07/13 00:32:18;;;;;;;8.70;3.80;;;;;;;32.54;25.14;100270.34;5006144;28;20090;-69
2022/07/13 00:34:45;;;;;;;3.97;3.30;;;;;;;32.47;25.27;100258.91;5009890;28;20050;-69
2022/07/13 00:37:12;;;;;;;4.50;3.55;;;;;;;32.56;24.98;100271.56;5004703;28;20050;-68
2022/07/13 00:39:39;;;;;;;5.93;3.40;;;;;;;32.53;25.34;100262.94;5005428;28;20088;-68
2022/07/13 00:42:06;;;;;;;5.20;3.33;;;;;;;32.48;25.50;100257.66;5007411;28;20078;-68
2022/07/13 00:44:33;;;;;;;6.25;4.30;;;;;;;32.42;25.29;100265.22;5009586;28;20478;-68
2022/07/13 00:47:00;;;;;;;6.32;4.00;;;;;;;32.43;25.46;100267.66;5001432;28;20509;-68
2022/07/13 00:49:27;;;;;;;5.45;3.33;;;;;;;32.28;25.80;100252.59;5010661;28;20053;-69
2022/07/13 00:51:55;;;;;;;5.55;4.03;;;;;;;32.42;25.57;100268.09;5006425;28;20081;-69
2022/07/13 00:54:29;;;;;;;4.90;3.80;;;;;;;32.42;25.33;100268.09;5006828;28;20132;-69
2022/07/13 00:56:57;;;;;;;9.65;3.83;;;;;;;32.32;25.51;100247.56;5006612;28;20158;-69
2022/07/13 00:59:25;;;;;;;8.90;4.25;;;;;;;32.38;25.69;100252.84;4999013;28;20129;-69
2022/07/13 01:01:53;;;;;;;6.72;3.75;;;;;;;32.39;25.74;100263.16;5005718;28;20172;-65
2022/07/13 01:04:23;;;;;;;7.68;3.85;;;;;;;32.24;25.87;100242.31;5007035;28;20489;-66
2022/07/13 01:06:55;;;;;;;6.82;4.40;;;;;;;32.26;25.71;100243.53;5012108;28;20390;-66
2022/07/13 01:09:25;;;;;;;5.78;3.80;;;;;;;32.09;25.92;100228.09;5013118;28;20120;-66
2022/07/13 01:11:53;;;;;;;6.03;4.28;;;;;;;32.15;26.37;100253.63;5009145;28;20096;-64
2022/07/13 01:14:20;;;;;;;5.90;4.30;;;;;;;32.05;26.13;100255.41;5006551;28;20128;-66
2022/07/13 01:16:47;;;;;;;6.03;3.90;;;;;;;32.03;26.29;100252.13;5004014;28;20058;-66
2022/07/13 01:19:15;;;;;;;4.95;4.05;;;;;;;31.98;26.48;100249.75;5001259;28;20041;-65
2022/07/13 01:21:46;;;;;;;6.20;4.32;;;;;;;31.92;26.51;100248.59;5007894;28;20158;-66
2022/07/13 01:24:13;;;;;;;8.60;4.70;;;;;;;31.81;26.67;100228.50;5004001;28;20476;-65
2022/07/13 01:26:41;;;;;;;6.75;3.65;;;;;;;31.75;27.30;100230.25;5005885;28;20468;-65
2022/07/13 01:29:08;;;;;;;8.40;4.57;;;;;;;31.82;27.03;100248.28;5005619;28;20128;-65
2022/07/13 01:31:37;;;;;;;8.55;4.25;;;;;;;31.81;27.17;100235.09;5002267;28;20556;-65
2022/07/13 01:34:05;;;;;;;7.38;4.25;;;;;;;31.75;27.09;100236.81;4999582;28;20142;-65
2022/07/13 01:36:34;;;;;;;6.60;4.47;;;;;;;31.63;27.13;100225.88;5007391;28;20050;-65
2022/07/13 01:39:01;;;;;;;7.10;5.22;;;;;;;31.41;27.51;100205.13;5007666;28;20125;-66
2022/07/13 01:41:29;;;;;;;6.97;4.07;;;;;;;31.57;28.23;100236.25;5002658;28;20050;-67
2022/07/13 01:43:57;;;;;;;6.28;4.63;;;;;;;31.55;27.86;100238.75;5006659;28;20133;-65
2022/07/13 01:46:24;;;;;;;10.38;4.10;;;;;;;31.38;28.62;100240.59;5002700;28;20459;-65
2022/07/13 01:48:54;;;;;;;6.03;4.70;;;;;;;31.31;29.06;100241.47;5004456;28;20050;-65
2022/07/13 01:51:21;;;;;;;5.88;4.40;;;;;;;31.03;28.89;100236.06;5004638;28;20129;-66
2022/07/13 01:53:49;;;;;;;6.65;4.20;;;;;;;30.84;29.62;100215.25;5001744;28;20287;-66
2022/07/13 01:56:16;;;;;;;4.38;3.90;;;;;;;30.85;30.10;100247.78;5003142;28;20452;-66
2022/07/13 01:58:43;;;;;;;5.20;3.38;;;;;;;30.71;30.37;100242.13;5007319;28;20100;-66
2022/07/13 02:01:10;;;;;;;10.82;4.28;;;;;;;30.62;30.11;100251.25;5004921;28;20041;-66
2022/07/13 02:03:37;;;;;;;6.35;4.47;;;;;;;30.51;30.52;100239.81;5010942;28;20041;-66
2022/07/13 02:06:05;;;;;;;5.30;4.00;;;;;;;30.47;30.96;100235.34;5009355;28;20050;-65
2022/07/13 02:08:32;;;;;;;4.85;4.22;;;;;;;30.20;30.89;100192.75;5010977;28;20073;-66
2022/07/13 02:10:59;;;;;;;6.60;4.93;;;;;;;30.45;30.68;100242.31;5005334;28;20056;-65
2022/07/13 02:13:26;;;;;;;6.35;3.97;;;;;;;30.35;30.80;100228.00;5006638;28;20232;-66
2022/07/13 02:15:53;;;;;;;4.85;3.97;;;;;;;30.36;31.17;100233.38;5005958;28;20081;-66
2022/07/13 02:18:20;;;;;;;7.38;4.68;;;;;;;30.34;31.24;100218.56;5011137;28;20046;-66
2022/07/13 02:20:47;;;;;;;7.70;4.88;;;;;;;30.37;31.12;100225.53;5012612;28;20440;-65
2022/07/13 02:23:15;;;;;;;5.22;4.20;;;;;;;30.44;31.33;100245.66;5018135;28;20081;-66
2022/07/13 02:25:42;;;;;;;7.03;4.57;;;;;;;30.31;30.99;100213.63;5013862;28;20049;-66
2022/07/13 02:28:09;;;;;;;7.60;4.85;;;;;;;30.33;31.01;100222.69;5014543;28;20095;-66
2022/07/13 02:30:36;;;;;;;5.15;4.20;;;;;;;30.40;31.33;100234.16;5007243;28;20223;-65
2022/07/13 02:33:04;;;;;;;9.13;4.90;;;;;;;30.50;31.48;100237.38;5013201;28;20050;-66
2022/07/13 02:35:30;;;;;;;8.05;4.20;;;;;;;30.51;31.47;100233.25;5014006;28;20132;-66
2022/07/13 02:37:57;;;;;;;5.15;4.28;;;;;;;30.45;31.60;100227.09;5014630;28;20058;-66
2022/07/13 02:40:24;;;;;;;9.20;4.78;;;;;;;30.42;31.00;100213.53;5012332;28;20089;-66
2022/07/13 02:42:51;;;;;;;6.93;4.85;;;;;;;30.59;31.33;100232.75;5012650;28;20073;-66
2022/07/13 02:45:18;;;;;;;6.32;4.95;;;;;;;30.50;31.07;100220.09;5011020;28;20049;-66
2022/07/13 02:47:45;;;;;;;5.85;4.88;;;;;;;30.56;31.08;100224.13;5016849;28;20473;-67
2022/07/13 02:50:12;;;;;;;7.38;4.88;;;;;;;30.58;31.11;100224.53;5004435;28;20062;-67
2022/07/13 02:52:40;;;;;;;7.30;4.68;;;;;;;30.58;31.11;100227.41;5011337;28;20077;-66
2022/07/13 02:55:07;;;;;;;6.68;4.60;;;;;;;30.29;31.56;100181.59;5016359;28;20073;-67
2022/07/13 02:57:34;;;;;;;7.43;4.78;;;;;;;30.47;31.29;100203.66;5009371;28;20373;-66
2022/07/13 03:00:02;;;;;;;6.93;4.70;;;;;;;30.50;31.75;100220.91;5010665;28;20138;-68
2022/07/13 03:02:29;;;;;;;6.60;4.93;;;;;;;30.47;31.32;100224.63;5008081;28;20080;-67
2022/07/13 03:04:57;;;;;;;9.48;5.15;;;;;;;30.45;31.14;100218.47;5011638;28;20050;-67
2022/07/13 03:07:24;;;;;;;10.38;5.20;;;;;;;30.33;31.84;100216.94;5015736;28;20584;-66
2022/07/13 03:09:52;;;;;;;5.63;4.88;;;;;;;30.41;31.49;100235.78;5011125;28;20559;-66
2022/07/13 03:12:23;;;;;;;6.03;4.53;;;;;;;30.35;31.52;100231.72;5015999;28;20097;-65
2022/07/13 03:14:49;;;;;;;9.75;4.97;;;;;;;30.31;31.62;100233.81;5014011;28;20084;-66
2022/07/13 03:17:16;;;;;;;7.18;4.70;;;;;;;30.29;31.46;100238.34;5009691;28;20475;-65
2022/07/13 03:19:43;;;;;;;7.03;5.03;;;;;;;30.15;31.90;100219.91;5012754;28;20073;-65
2022/07/13 03:22:10;;;;;;;9.48;5.72;;;;;;;30.28;31.75;100237.53;5013985;28;20057;-66
2022/07/13 03:24:37;;;;;;;8.52;5.80;;;;;;;30.34;31.79;100244.47;5016435;28;20137;-66
2022/07/13 03:27:04;;;;;;;9.43;5.80;;;;;;;29.96;32.02;100172.34;5009415;28;20050;-66
2022/07/13 03:29:31;;;;;;;7.75;6.25;;;;;;;30.43;31.75;100255.53;5011325;28;20508;-67
2022/07/13 03:31:58;;;;;;;8.43;5.80;;;;;;;30.39;31.76;100240.31;5008291;28;20136;-65
2022/07/13 03:34:25;;;;;;;7.40;5.97;;;;;;;30.44;31.96;100237.81;5013324;28;20500;-66
2022/07/13 03:36:52;;;;;;;7.85;5.60;;;;;;;30.50;32.09;100248.91;5011650;28;20046;-65
2022/07/13 03:39:19;;;;;;;6.80;5.10;;;;;;;30.44;31.85;100248.53;5006156;28;20133;-66
2022/07/13 03:41:45;;;;;;;8.02;5.13;;;;;;;30.33;31.72;100251.50;5009958;28;20148;-66
2022/07/13 03:44:12;;;;;;;7.00;5.05;;;;;;;30.33;32.24;100250.69;5006185;28;20588;-66
2022/07/13 03:46:40;;;;;;;7.28;4.75;;;;;;;30.33;32.34;100245.72;5009273;28;20140;-66
2022/07/13 03:49:07;;;;;;;6.85;5.20;;;;;;;30.28;32.21;100230.94;5009514;28;20125;-67
2022/07/13 03:51:33;;;;;;;6.07;4.53;;;;;;;30.30;31.80;100232.19;4993474;28;20109;-67
2022/07/13 03:54:00;;;;;;;8.35;4.35;;;;;;;30.42;32.24;100248.13;5008317;28;20049;-67
2022/07/13 03:56:27;;;;;;;7.10;5.57;;;;;;;30.45;32.28;100245.22;5002646;28;20046;-68
2022/07/13 03:58:55;;;;;;;7.00;4.93;;;;;;;30.28;31.82;100223.13;5008248;28;20468;-67
2022/07/13 04:01:22;;;;;;;7.70;5.75;;;;;;;30.44;32.39;100246.47;5003913;28;20137;-67
2022/07/13 04:03:51;;;;;;;6.13;5.13;;;;;;;30.37;32.07;100243.63;5009542;28;20620;-67
2022/07/13 04:06:19;;;;;;;7.32;5.57;;;;;;;30.30;32.19;100223.53;5000680;28;20523;-68
2022/07/13 04:08:46;;;;;;;7.78;5.07;;;;;;;30.27;32.05;100235.91;5011650;28;20085;-68
2022/07/13 04:11:13;;;;;;;8.10;5.25;;;;;;;30.40;32.27;100254.31;5009023;28;20146;-67
2022/07/13 04:13:39;;;;;;;6.38;4.63;;;;;;;30.41;32.27;100258.81;5010349;28;20085;-68
2022/07/13 04:16:07;;;;;;;12.90;5.72;;;;;;;30.35;32.46;100251.88;5004901;28;20580;-68
2022/07/13 04:18:34;;;;;;;6.20;5.07;;;;;;;30.07;32.72;100203.91;5002588;28;20641;-68
2022/07/13 04:21:01;;;;;;;6.53;5.10;;;;;;;30.25;32.23;100247.00;5008410;28;20092;-67
2022/07/13 04:23:29;;;;;;;7.32;5.47;;;;;;;30.36;32.48;100255.56;5007678;28;20563;-68
2022/07/13 04:25:57;;;;;;;8.60;4.97;;;;;;;30.37;32.13;100257.22;5005565;28;20073;-66
2022/07/13 04:28:24;;;;;;;11.43;5.80;;;;;;;30.26;32.38;100237.16;5006436;28;20087;-65
2022/07/13 04:30:51;;;;;;;5.85;5.05;;;;;;;30.40;32.17;100257.19;5004051;28;20129;-66
2022/07/13 04:33:18;;;;;;;6.38;4.70;;;;;;;30.42;32.43;100263.34;5009668;28;20128;-65
2022/07/13 04:35:44;;;;;;;7.18;5.72;;;;;;;30.41;32.40;100263.78;5004860;28;20045;-66
2022/07/13 04:38:12;;;;;;;9.00;5.18;;;;;;;30.43;32.71;100267.06;5006983;28;20082;-66
2022/07/13 04:40:39;;;;;;;11.88;6.35;;;;;;;30.21;32.95;100249.91;5002017;28;21642;-66
2022/07/13 04:43:06;;;;;;;6.18;5.38;;;;;;;30.17;33.07;100254.03;4999269;28;20480;-66
2022/07/13 04:45:33;;;;;;;7.25;5.57;;;;;;;30.21;32.96;100267.19;5010175;28;20128;-66
2022/07/13 04:48:01;;;;;;;7.45;4.95;;;;;;;30.19;32.60;100266.00;5010322;28;20838;-66
2022/07/13 04:50:28;;;;;;;8.87;5.30;;;;;;;30.14;32.42;100272.16;5002805;28;20068;-66
2022/07/13 04:52:55;;;;;;;8.50;5.38;;;;;;;30.20;32.76;100277.09;5007969;28;20299;-66
2022/07/13 04:55:23;;;;;;;8.30;5.18;;;;;;;30.17;32.96;100277.91;5009315;28;20060;-66
2022/07/13 04:57:50;;;;;;;9.10;5.53;;;;;;;30.09;33.04;100269.75;5000016;28;20149;-66
2022/07/13 05:00:17;;;;;;;9.15;6.43;;;;;;;30.07;33.17;100289.50;5003101;28;20125;-67
2022/07/13 05:02:44;;;;;;;7.22;5.25;;;;;;;29.93;33.38;100273.13;5002751;28;20129;-66
2022/07/13 05:05:11;;;;;;;8.88;5.60;;;;;;;29.65;33.77;100257.66;5008054;28;20132;-66
2022/07/13 05:07:38;;;;;;;9.95;5.47;;;;;;;29.48;33.67;100242.06;5007293;28;20133;-66
2022/07/13 05:10:07;;;;;;;8.75;6.15;;;;;;;29.70;34.16;100283.09;5008541;28;20070;-67
2022/07/13 05:12:41;;;;;;;9.25;6.30;;;;;;;29.65;33.80;100291.34;5004292;28;20597;-68
2022/07/13 05:15:09;;;;;;;7.97;5.70;;;;;;;29.49;34.24;100281.09;5006779;28;20093;-65
2022/07/13 05:17:36;;;;;;;8.23;5.93;;;;;;;29.38;34.39;100268.00;5004298;28;20078;-66
2022/07/13 05:20:04;;;;;;;7.40;5.72;;;;;;;29.47;34.47;100295.09;5001100;28;20128;-67
2022/07/13 05:22:31;;;;;;;8.65;5.57;;;;;;;29.39;34.46;100290.59;5009337;28;20088;-68
2022/07/13 05:24:59;;;;;;;10.18;6.57;;;;;;;29.39;34.56;100302.09;5005350;28;20049;-65
2022/07/13 05:27:26;;;;;;;11.32;6.25;;;;;;;29.27;34.63;100288.16;5006142;28;20050;-67
2022/07/13 05:29:53;;;;;;;7.95;5.47;;;;;;;29.31;34.49;100300.47;5012774;28;20128;-67
2022/07/13 05:32:20;;;;;;;10.30;6.00;;;;;;;29.01;35.10;100252.88;5008563;28;20081;-66
2022/07/13 05:34:47;;;;;;;6.93;5.60;;;;;;;29.19;34.82;100275.84;5012365;28;20058;-66
2022/07/13 05:37:14;;;;;;;8.27;6.18;;;;;;;29.40;34.99;100298.00;5010742;28;20507;-66
2022/07/13 05:39:45;;;;;;;7.88;6.57;;;;;;;29.38;35.11;100297.59;5011824;28;20144;-66
2022/07/13 05:42:13;;;;;;;6.38;5.68;;;;;;;29.35;35.50;100301.28;5003116;28;20489;-67
2022/07/13 05:44:40;;;;;;;12.48;6.30;;;;;;;29.34;35.38;100305.41;4998871;28;20076;-68
2022/07/13 05:47:07;;;;;;;11.15;6.20;;;;;;;29.24;35.31;100286.13;5005694;28;20092;-67
2022/07/13 05:49:34;;;;;;;10.68;6.88;;;;;;;29.27;35.26;100306.25;5007408;28;20125;-67
2022/07/13 05:52:00;;;;;;;6.43;5.53;;;;;;;29.36;35.42;100314.44;5004696;28;20045;-67
2022/07/13 05:54:27;;;;;;;6.85;5.32;;;;;;;29.38;35.38;100300.47;5005730;28;20088;-67
2022/07/13 05:57:11;;;;;;;11.85;6.68;;;;;;;29.47;35.49;100309.47;5007558;28;20050;-67
2022/07/13 05:59:38;;;;;;;11.07;5.85;;;;;;;29.52;35.50;100299.59;5007022;28;20084;-67
2022/07/13 06:02:05;;;;;;;12.45;6.75;;;;;;;29.51;35.22;100310.28;5003313;28;20081;-66
2022/07/13 06:04:32;;;;;;;7.38;6.25;;;;;;;29.40;35.28;100280.75;4999729;28;20047;-68
2022/07/13 06:06:59;;;;;;;10.88;6.28;;;;;;;29.60;35.71;100309.84;5000265;28;20069;-67
2022/07/13 06:09:26;;;;;;;12.88;5.90;;;;;;;29.60;35.10;100295.47;5005689;28;20104;-66
2022/07/13 06:11:53;;;;;;;8.55;4.93;;;;;;;29.77;34.47;100288.00;5009245;28;20568;-66
2022/07/13 06:14:20;;;;;;;8.88;5.13;;;;;;;29.90;34.49;100285.47;5005084;28;20101;-67
2022/07/13 06:16:46;;;;;;;7.95;5.90;;;;;;;30.07;33.89;100287.44;5000274;28;20108;-67
2022/07/13 06:19:13;;;;;;;9.48;6.13;;;;;;;30.34;33.67;100302.09;5002618;28;20137;-68
2022/07/13 06:21:40;;;;;;;6.95;5.72;;;;;;;30.29;33.60;100272.91;5008271;28;20088;-66
2022/07/13 06:24:07;;;;;;;8.13;5.13;;;;;;;30.69;33.11;100308.81;4999935;28;20093;-67
2022/07/13 06:26:34;;;;;;;8.38;6.30;;;;;;;30.71;33.11;100294.00;5004877;28;20465;-68
2022/07/13 06:29:01;;;;;;;8.52;5.88;;;;;;;30.87;33.16;100306.66;5005607;28;20574;-68
2022/07/13 06:31:28;;;;;;;7.78;4.75;;;;;;;31.05;33.41;100314.31;5005546;28;20519;-68
2022/07/13 06:33:56;;;;;;;7.05;5.53;;;;;;;31.19;32.61;100310.47;5001583;28;20077;-67
2022/07/13 06:36:23;;;;;;;6.55;4.75;;;;;;;31.21;32.46;100300.13;5001098;28;20088;-68
2022/07/13 06:38:50;;;;;;;9.70;5.63;;;;;;;31.30;32.18;100308.28;4996681;28;20559;-67
2022/07/13 06:41:18;;;;;;;7.20;5.43;;;;;;;31.43;32.23;100314.38;4999541;28;20113;-67
2022/07/13 06:43:45;;;;;;;10.77;5.88;;;;;;;31.49;31.81;100309.72;4992616;28;20480;-67
2022/07/13 06:46:12;;;;;;;11.23;5.50;;;;;;;31.51;31.62;100322.50;4994181;28;20050;-67
2022/07/13 06:48:38;;;;;;;8.82;5.03;;;;;;;31.65;32.03;100333.06;5000381;28;20138;-67
2022/07/13 06:51:05;;;;;;;15.85;7.15;;;;;;;31.75;31.72;100335.00;4998025;28;20600;-67
2022/07/13 06:53:33;;;;;;;11.25;7.07;;;;;;;31.82;32.30;100343.56;5000206;28;20136;-67
2022/07/13 06:55:59;;;;;;;14.45;7.18;;;;;;;32.03;32.76;100338.78;4998460;28;20136;-67
2022/07/13 06:58:26;;;;;;;17.20;7.30;;;;;;;32.23;32.46;100336.84;4995573;28;20157;-66
2022/07/13 07:00:53;;;;;;;10.38;7.00;;;;;;;32.21;32.29;100298.13;4992257;28;20524;-67
2022/07/13 07:03:20;;;;;;;13.25;6.32;;;;;;;32.66;32.13;100347.81;4992480;28;20424;-67
2022/07/13 07:05:49;;;;;;;10.55;6.70;;;;;;;32.89;32.00;100360.66;4996703;28;20072;-67
2022/07/13 07:08:16;;;;;;;14.95;5.85;;;;;;;32.91;31.78;100364.75;5011292;28;20133;-67
2022/07/13 07:10:43;;;;;;;8.35;6.18;;;;;;;32.84;32.00;100340.91;5005690;28;20135;-66
2022/07/13 07:13:11;;;;;;;8.82;6.22;;;;;;;32.36;31.80;100331.31;5004438;28;20081;-67
2022/07/13 07:15:37;;;;;;;10.90;6.32;;;;;;;32.35;32.27;100386.66;5002285;28;20134;-67
2022/07/13 07:18:05;;;;;;;13.60;7.18;;;;;;;32.30;32.62;100406.09;5004084;28;20144;-67
2022/07/13 07:20:35;;;;;;;17.15;7.95;;;;;;;32.13;32.68;100386.94;5004490;28;20049;-67
2022/07/13 07:23:02;;;;;;;14.40;8.10;;;;;;;32.38;32.52;100377.94;5008277;28;20096;-67
2022/07/13 07:25:29;;;;;;;14.18;8.18;;;;;;;32.57;31.97;100388.00;5006868;28;20046;-67
2022/07/13 07:27:56;;;;;;;21.13;9.88;;;;;;;32.52;32.21;100423.19;5007369;28;20141;-67
2022/07/13 07:30:23;;;;;;;13.10;8.98;;;;;;;32.22;33.06;100397.97;4998198;28;20140;-71
2022/07/13 07:32:49;;;;;;;29.77;18.73;;;;;;;32.08;33.00;100398.97;5005178;28;20544;-72
2022/07/13 07:35:17;;;;;;;38.67;24.10;;;;;;;32.18;33.31;100409.59;5003739;28;20481;-71
2022/07/13 07:37:44;;;;;;;55.80;33.20;;;;;;;32.27;32.67;100423.47;5006463;28;20533;-71
2022/07/13 07:40:12;;;;;;;78.95;48.53;;;;;;;32.43;32.67;100415.03;5003640;28;20088;-71
2022/07/13 07:42:39;;;;;;;94.75;60.80;;;;;;;32.31;32.18;100387.53;4999409;28;20556;-71
2022/07/13 07:45:08;;;;;;;106.78;67.65;;;;;;;32.58;32.14;100398.31;4998843;28;20137;-71
2022/07/13 07:47:36;;;;;;;98.80;63.90;;;;;;;32.91;32.00;100407.31;5004788;28;20089;-71
2022/07/13 07:50:04;;;;;;;101.65;64.50;;;;;;;33.11;31.58;100407.44;5008207;28;20089;-71
2022/07/13 07:52:31;;;;;;;103.63;69.10;;;;;;;33.29;31.63;100448.44;5004387;28;20050;-70
2022/07/13 07:55:19;;;;;;;102.25;63.58;;;;;;;33.31;31.77;100431.47;5000191;28;20050;-71
2022/07/13 07:57:47;;;;;;;106.22;65.85;;;;;;;33.39;31.94;100418.50;5012418;28;20084;-71
2022/07/13 08:00:16;;;;;;;105.25;65.57;;;;;;;33.42;31.87;100422.59;5007766;28;20526;-73
2022/07/13 08:02:43;;;;;;;106.00;68.10;;;;;;;33.63;32.01;100416.44;5003005;28;20133;-71
2022/07/13 08:05:11;;;;;;;107.82;69.00;;;;;;;33.86;31.49;100400.28;5010701;28;20119;-71
2022/07/13 08:07:42;;;;;;;103.40;64.05;;;;;;;34.17;31.06;100404.63;5011374;28;20084;-71
2022/07/13 08:10:10;;;;;;;94.53;61.25;;;;;;;34.33;31.10;100443.63;5008934;28;20077;-70
2022/07/13 08:12:53;;;;;;;95.50;60.88;;;;;;;34.51;30.46;100438.28;5006933;28;20091;-70
2022/07/13 08:15:22;;;;;;;90.93;60.17;;;;;;;34.70;30.28;100447.38;4999416;28;20049;-70
2022/07/13 08:17:49;;;;;;;105.30;68.07;;;;;;;34.81;29.92;100447.97;4998699;28;20379;-71
2022/07/13 08:20:16;;;;;;;104.32;66.68;;;;;;;34.82;30.23;100432.19;5002360;28;20053;-71
2022/07/13 08:22:47;;;;;;;107.10;66.35;;;;;;;34.97;30.12;100445.06;4999124;28;20109;-71
2022/07/13 08:25:14;;;;;;;102.00;62.97;;;;;;;34.70;29.91;100400.97;5009553;28;20137;-71
2022/07/13 08:27:41;;;;;;;106.07;70.20;;;;;;;34.88;29.24;100442.81;5005760;28;20081;-71
2022/07/13 08:30:10;;;;;;;97.20;65.95;;;;;;;35.05;29.63;100445.75;5004306;28;20089;-72
2022/07/13 08:32:40;;;;;;;;;;;;;;;34.84;30.09;100452.88;5004923;28;20147;-72
2022/07/13 08:40:41;;;;;;;93.70;63.40;;;;;;;34.85;29.53;100419.69;5006011;28;20546;-71
2022/07/13 08:43:08;;;;;;;98.70;64.38;;;;;;;35.05;28.63;100423.38;4996360;28;20115;-72
2022/07/13 08:45:35;;;;;;;102.07;67.00;;;;;;;34.89;28.72;100432.00;5000132;28;20131;-72
2022/07/13 08:48:11;;;;;;;100.28;65.53;;;;;;;34.89;28.94;100438.63;5008381;28;20078;-71
2022/07/13 08:50:38;;;;;;;96.70;63.60;;;;;;;35.05;28.85;100434.97;5008960;28;20054;-71
2022/07/13 08:53:06;;;;;;;102.72;62.25;;;;;;;35.46;28.88;100453.84;4998754;28;20564;-72
2022/07/13 08:55:36;;;;;;;93.85;62.08;;;;;;;35.80;28.01;100461.28;5000666;28;20141;-71
2022/07/13 08:58:03;;;;;;;92.53;60.03;;;;;;;35.79;28.40;100448.81;5004837;28;20517;-71
2022/07/13 09:00:30;;;;;;;86.22;57.90;;;;;;;35.97;27.83;100454.13;5005179;28;20141;-71
2022/07/13 09:02:57;;;;;;;86.03;56.03;;;;;;;36.06;27.09;100456.41;4998544;28;20050;-72
2022/07/13 09:05:26;;;;;;;87.85;56.85;;;;;;;35.85;27.03;100463.59;5001546;28;20054;-71
2022/07/13 09:08:05;;;;;;;78.22;52.45;;;;;;;35.60;27.34;100470.91;5002668;28;20046;-71
2022/07/13 09:10:50;;;;;;;76.15;51.97;;;;;;;35.33;27.47;100467.44;5001372;28;20050;-71
2022/07/13 09:13:34;;;;;;;78.47;52.00;;;;;;;35.60;27.68;100476.72;5004411;28;21262;-72
2022/07/13 09:16:23;;;;;;;79.32;50.35;;;;;;;35.89;27.22;100473.03;5003947;28;20511;-72
2022/07/13 09:18:53;;;;;;;67.25;44.80;;;;;;;36.10;26.79;100482.44;4997772;28;20068;-71
2022/07/13 09:21:31;;;;;;;58.17;38.33;;;;;;;36.23;26.94;100457.97;5000892;28;20085;-71
2022/07/13 09:24:03;;;;;;;53.92;37.53;;;;;;;36.43;26.18;100459.88;5001570;28;20605;-70
2022/07/13 09:26:52;;;;;;;62.03;39.88;;;;;;;36.72;26.41;100474.38;5002259;28;20038;-71
2022/07/13 09:29:20;;;;;;;;;;;;;;;36.59;26.56;100473.56;5002606;28;20483;-71
2022/07/13 09:31:51;;;;;;;47.05;30.88;;;;;;;36.65;26.42;100483.34;4995503;28;19956;-71
2022/07/13 09:34:19;;;;;;;47.08;31.70;;;;;;;36.50;26.51;100475.06;5001099;28;20483;-72
2022/07/13 09:37:10;;;;;;;47.63;32.35;;;;;;;36.34;26.99;100483.81;5005386;28;21232;-72
2022/07/13 09:39:55;;;;;;;43.13;27.70;;;;;;;36.08;25.36;100477.13;5007465;28;20099;-72
2022/07/13 09:42:30;;;;;;;47.70;31.13;;;;;;;36.04;25.61;100485.94;4995670;28;20080;-72
2022/07/13 09:47:58;;;;;;;57.25;34.10;;;;;;;36.00;24.33;100501.78;5004587;28;20163;-71
2022/07/13 09:50:40;;;;;;;49.45;32.85;;;;;;;36.08;23.93;100499.56;5005711;28;20100;-72
2022/07/13 09:53:27;;;;;;;49.47;33.50;;;;;;;35.94;23.93;100500.75;5003061;28;20050;-71
2022/07/13 09:55:57;;;;;;;52.80;33.55;;;;;;;36.03;23.61;100513.34;5000304;28;20042;-71
2022/07/13 09:58:31;;;;;;;50.60;32.30;;;;;;;36.22;23.51;100526.13;4995466;28;20148;-71
2022/07/13 10:01:01;;;;;;;53.30;33.40;;;;;;;36.21;23.44;100526.59;4998631;28;20081;-71
2022/07/13 10:03:29;;;;;;;47.75;31.60;;;;;;;36.31;23.30;100540.00;5007740;28;20104;-71
2022/07/13 10:05:58;;;;;;;43.22;30.60;;;;;;;36.58;22.83;100510.56;5006785;28;20046;-71
2022/07/13 10:08:26;;;;;;;46.88;32.00;;;;;;;37.04;22.10;100542.47;5009249;28;20145;-72
2022/07/13 10:10:52;;;;;;;43.83;29.95;;;;;;;36.85;22.73;100483.94;5002601;28;20144;-71
2022/07/13 10:13:20;;;;;;;42.83;28.13;;;;;;;37.12;21.93;100523.47;4998637;28;20185;-71
2022/07/13 10:15:47;;;;;;;36.95;26.98;;;;;;;37.39;21.26;100547.13;5006082;28;20085;-71
2022/07/13 10:18:26;;;;;;;31.87;20.90;;;;;;;37.41;21.36;100540.84;5002589;28;20056;-71
2022/07/13 10:21:04;;;;;;;28.30;16.25;;;;;;;37.46;20.15;100552.75;5003244;28;20382;-71
2022/07/13 10:23:37;;;;;;;24.30;15.70;;;;;;;37.57;19.51;100557.38;5004820;28;20081;-71
2022/07/13 10:26:22;;;;;;;24.85;15.75;;;;;;;37.54;19.09;100546.66;5001283;28;20061;-70
2022/07/13 10:29:10;;;;;;;32.10;17.40;;;;;;;37.62;19.97;100553.91;5007368;28;20089;-72
2022/07/13 10:31:40;;;;;;;24.27;15.77;;;;;;;37.82;19.41;100569.03;5004589;28;20062;-71
2022/07/13 10:34:12;;;;;;;27.75;17.75;;;;;;;37.92;19.27;100567.06;5001554;28;20472;-72
2022/07/13 10:36:51;;;;;;;27.08;16.27;;;;;;;37.97;19.20;100562.72;4992748;28;20516;-71
2022/07/13 10:39:19;;;;;;;26.23;15.48;;;;;;;37.94;18.72;100573.22;5000158;28;20053;-71
2022/07/13 10:42:12;;;;;;;22.23;15.77;;;;;;;37.90;19.55;100578.38;5008510;28;20585;-71
2022/07/13 10:44:43;;;;;;;26.58;17.85;;;;;;;38.07;18.38;100579.84;5002955;28;20080;-71
2022/07/13 10:47:12;;;;;;;25.45;17.63;;;;;;;38.19;18.94;100581.09;5006149;28;20140;-71
2022/07/13 10:49:52;;;;;;;35.22;18.60;;;;;;;38.13;18.40;100577.16;5002699;28;20061;-71
2022/07/13 10:52:19;;;;;;;33.33;20.75;;;;;;;38.06;18.37;100594.91;5006893;28;20057;-71
2022/07/13 10:57:33;;;;;;;38.33;24.27;;;;;;;38.27;18.51;100587.47;4999679;28;20054;-71
2022/07/13 11:00:16;;;;;;;;;;;;;;;38.20;19.78;100585.63;5007278;28;20057;-71
2022/07/13 11:02:55;;;;;;;36.97;24.05;;;;;;;38.35;18.57;100559.66;5005733;28;20429;-71
2022/07/13 11:05:30;;;;;;;33.55;22.27;;;;;;;38.46;18.02;100574.69;5004175;28;21135;-71
2022/07/13 11:07:58;;;;;;;34.55;22.63;;;;;;;38.32;17.96;100561.44;5002781;28;20073;-71
2022/07/13 11:10:28;;;;;;;24.75;16.33;;;;;;;38.31;18.20;100571.47;5002268;28;20061;-71
2022/07/13 11:13:03;;;;;;;28.10;19.45;;;;;;;38.24;18.01;100560.06;5004072;28;20516;-71
2022/07/13 11:15:50;;;;;;;28.45;18.60;;;;;;;38.11;17.14;100556.38;5000612;28;20101;-71
2022/07/13 11:18:22;;;;;;;20.55;14.52;;;;;;;37.98;17.33;100558.50;5003240;28;20037;-72
2022/07/13 11:21:08;;;;;;;22.77;14.77;;;;;;;37.81;17.23;100558.63;5004213;28;20061;-72
2022/07/13 11:26:55;;;;;;;28.90;17.42;;;;;;;37.50;17.36;100540.16;5005490;28;20108;-72
2022/07/13 11:29:25;;;;;;;33.40;19.05;;;;;;;37.64;17.55;100563.81;5000733;28;21332;-71
2022/07/13 11:31:56;;;;;;;34.22;20.65;;;;;;;37.75;16.85;100540.13;5003167;28;20077;-71
2022/07/13 11:34:24;;;;;;;34.35;22.58;;;;;;;37.82;17.13;100536.16;5010123;28;20046;-72
2022/07/13 11:36:52;;;;;;;38.23;23.37;;;;;;;38.02;17.43;100550.44;5003021;28;20141;-71
2022/07/13 11:39:34;;;;;;;36.25;21.60;;;;;;;37.92;18.09;100544.56;5000138;28;21605;-72
2022/07/13 11:42:05;;;;;;;34.50;21.38;;;;;;;37.86;17.66;100540.56;4998782;28;20124;-72